createdAt,value
2017-05-11T00:04:17.251Z,6.18
2017-05-11T01:00:13.583Z,5.91
2017-05-11T01:02:43.780Z,5.89
2017-05-11T01:11:14.718Z,5.47
2017-05-11T01:16:25.694Z,5.3
2017-05-11T01:20:23.829Z,5.13
2017-05-11T01:34:47.441Z,5.61
2017-05-11T01:49:39.915Z,5.57
2017-05-11T01:59:38.975Z,5.66
2017-05-11T02:01:36.253Z,5.65
2017-05-11T02:19:05.541Z,5.17
2017-05-11T02:21:24.495Z,5.12
2017-05-11T02:24:43.474Z,5.02
2017-05-11T02:28:59.724Z,4.98
2017-05-11T02:34:44.565Z,5.04
2017-05-11T02:59:19.895Z,6.69
2017-05-11T03:41:15.215Z,5.99
2017-05-11T03:43:10.455Z,5.83
2017-05-11T03:47:14.132Z,5.59
2017-05-11T03:53:36.164Z,5.37
2017-05-11T04:01:02.030Z,5.54
2017-05-11T04:02:31.696Z,5.58
2017-05-11T04:06:07.759Z,5.63
2017-05-11T04:07:43.564Z,5.61
2017-05-11T04:09:12.775Z,5.58
2017-05-11T04:12:53.423Z,5.5
2017-05-11T04:14:42.651Z,5.46
2017-05-11T04:16:10.330Z,5.42
2017-05-11T04:20:58.207Z,5.37
2017-05-11T04:24:52.651Z,5.39
2017-05-11T04:32:18.831Z,5.49
2017-05-11T04:34:07.873Z,5.54
2017-05-11T04:36:15.456Z,5.58
2017-05-11T04:40:01.939Z,5.69
2017-05-11T04:41:25.025Z,5.73
2017-05-11T04:42:49.521Z,5.77
2017-05-11T04:44:16.645Z,5.8
2017-05-11T04:45:39.769Z,5.85
2017-05-11T05:05:46.473Z,6.84
2017-05-11T08:49:13.752Z,22.92
2017-05-11T08:51:01.205Z,23.06
2017-05-11T09:03:40.956Z,23.37
2017-05-11T09:17:03.734Z,34.46
2017-05-11T09:18:25.783Z,38.07
2017-05-11T09:19:47.751Z,40.78
2017-05-11T09:21:09.608Z,42.81
2017-05-11T09:22:31.629Z,44.46
2017-05-11T09:23:53.422Z,45.83
2017-05-11T09:25:15.985Z,46.95
2017-05-11T09:26:37.903Z,47.9
2017-05-11T09:27:59.926Z,48.72
2017-05-11T09:29:21.790Z,49.2
2017-05-11T09:30:44.661Z,49.62
2017-05-11T09:32:06.465Z,49.96
2017-05-11T09:33:28.477Z,50.38
2017-05-11T09:34:50.597Z,50.92
2017-05-11T09:36:12.385Z,51.26
2017-05-11T09:37:34.183Z,51.59
2017-05-11T09:38:56.068Z,51.89
2017-05-11T09:40:18.093Z,52.13
2017-05-11T09:41:39.933Z,52.54
2017-05-11T09:43:01.714Z,52.95
2017-05-11T09:44:24.697Z,53.34
2017-05-11T09:45:46.566Z,53.51
2017-05-11T09:47:08.433Z,53.56
2017-05-11T09:48:30.330Z,53.62
2017-05-11T09:49:52.314Z,53.5
2017-05-11T09:51:14.126Z,53.36
2017-05-11T09:52:35.958Z,53.42
2017-05-11T09:53:57.818Z,53.81
2017-05-11T09:55:19.690Z,53.97
2017-05-11T09:56:41.474Z,54.11
2017-05-11T09:58:03.350Z,53.17
2017-05-11T09:59:25.300Z,53.46
2017-05-11T10:00:47.151Z,54.11
2017-05-11T10:02:08.982Z,54.65
2017-05-11T10:03:30.943Z,55.04
2017-05-11T10:04:53.878Z,55.23
2017-05-11T10:06:15.788Z,55.54
2017-05-11T10:07:37.720Z,55.85
2017-05-11T10:08:59.697Z,55.84
2017-05-11T10:10:21.541Z,55.42
2017-05-11T10:11:43.449Z,54.88
2017-05-11T10:13:05.435Z,54.49
2017-05-11T10:14:27.264Z,53.82
2017-05-11T10:15:49.282Z,54.23
2017-05-11T10:17:11.414Z,54.81
2017-05-11T10:18:33.188Z,55.53
2017-05-11T10:19:54.973Z,56.39
2017-05-11T10:21:16.820Z,57.05
2017-05-11T10:22:38.669Z,57.08
2017-05-11T10:24:00.552Z,56.82
2017-05-11T10:25:22.407Z,56.57
2017-05-11T10:26:45.803Z,55.98
2017-05-11T10:28:18.540Z,56.17
2017-05-11T10:29:40.379Z,56.8
2017-05-11T10:31:02.183Z,57.23
2017-05-11T10:32:24.163Z,57.26
2017-05-11T10:33:46.109Z,57.06
2017-05-11T10:35:08.033Z,56.09
2017-05-11T10:36:29.906Z,56.4
2017-05-11T10:37:51.710Z,56.18
2017-05-11T10:39:13.588Z,54.75
2017-05-11T10:40:35.549Z,54.39
2017-05-11T10:41:58.748Z,54.48
2017-05-11T10:43:20.542Z,53.9
2017-05-11T10:44:42.435Z,53.81
2017-05-11T10:46:04.418Z,53.83
2017-05-11T10:47:26.248Z,53.11
2017-05-11T10:48:48.828Z,51.94
2017-05-11T10:50:10.872Z,52.48
2017-05-11T10:51:32.887Z,53.51
2017-05-11T10:52:54.979Z,54.54
2017-05-11T10:54:16.851Z,54.99
2017-05-11T10:55:38.839Z,55.65
2017-05-11T10:57:00.773Z,55.88
2017-05-11T10:58:22.513Z,55.74
2017-05-11T10:59:44.460Z,55.8
2017-05-11T11:01:06.291Z,55.9
2017-05-11T11:02:28.149Z,56.02
2017-05-11T11:03:49.973Z,56.96
2017-05-11T11:05:11.906Z,57.63
2017-05-11T11:06:33.649Z,57.99
2017-05-11T11:07:55.625Z,58.52
2017-05-11T11:09:17.880Z,59.22
2017-05-11T11:10:39.843Z,59.79
2017-05-11T11:12:01.625Z,59.86
2017-05-11T11:13:23.518Z,59.95
2017-05-11T11:14:45.460Z,60.36
2017-05-11T11:16:07.367Z,59.49
2017-05-11T11:17:29.306Z,58.9
2017-05-11T11:18:51.190Z,59.17
2017-05-11T11:20:12.969Z,58.59
2017-05-11T11:21:34.806Z,58.16
2017-05-11T11:22:56.685Z,57.47
2017-05-11T11:24:18.631Z,57.45
2017-05-11T11:25:40.555Z,57.41
2017-05-11T11:27:02.506Z,57.4
2017-05-11T11:28:24.384Z,57.07
2017-05-11T11:29:52.750Z,58.14
2017-05-11T11:31:15.408Z,59.18
2017-05-11T11:32:37.466Z,59.93
2017-05-11T11:33:59.300Z,58.57
2017-05-11T11:35:21.293Z,57.9
2017-05-11T11:36:43.073Z,57.33
2017-05-11T11:38:05.395Z,55.75
2017-05-11T11:39:27.243Z,55.24
2017-05-11T11:40:49.491Z,54.93
2017-05-11T11:42:11.362Z,54.04
2017-05-11T11:43:34.294Z,53.15
2017-05-11T11:44:56.107Z,52.61
2017-05-11T11:46:18.014Z,51.28
2017-05-11T11:47:40.900Z,49.6
2017-05-11T11:49:02.777Z,48.17
2017-05-11T11:50:30.633Z,47.13
2017-05-11T11:51:52.529Z,46.28
2017-05-11T11:53:14.431Z,45.41
2017-05-11T11:54:36.282Z,44.72
2017-05-11T11:55:58.102Z,44.08
2017-05-11T11:57:20.026Z,43.5
2017-05-11T11:58:41.875Z,43
2017-05-11T12:00:03.709Z,42.72
2017-05-11T12:01:27.591Z,43.39
2017-05-11T12:02:50.628Z,43.08
2017-05-11T12:04:12.529Z,42.69
2017-05-11T12:05:34.630Z,42.51
2017-05-11T12:07:02.078Z,43.66
2017-05-11T12:08:36.578Z,46.41
2017-05-11T12:09:58.618Z,49.69
2017-05-11T12:11:28.349Z,52.1
2017-05-11T12:12:50.223Z,52.77
2017-05-11T12:14:12.105Z,54.09
2017-05-11T12:15:34.002Z,56.05
2017-05-11T12:16:55.852Z,57.36
2017-05-11T12:18:17.670Z,56.29
2017-05-11T12:19:39.500Z,57.68
2017-05-11T12:21:01.332Z,58.58
2017-05-11T12:22:25.632Z,59.19
2017-05-11T12:23:47.720Z,59.88
2017-05-11T12:25:09.731Z,60.95
2017-05-11T12:26:31.675Z,61.26
2017-05-11T12:27:53.570Z,60.5
2017-05-11T12:29:15.505Z,58.82
2017-05-11T12:30:37.461Z,55.8
2017-05-11T12:32:05.777Z,54.02
2017-05-11T12:33:27.562Z,55.54
2017-05-11T12:34:49.548Z,56.64
2017-05-11T12:36:11.494Z,56.51
2017-05-11T12:37:33.394Z,56.68
2017-05-11T12:38:55.304Z,56.65
2017-05-11T12:40:17.135Z,55.17
2017-05-11T12:41:39.009Z,52.94
2017-05-11T12:43:00.990Z,51.44
2017-05-11T12:44:22.984Z,49.41
2017-05-11T12:45:44.858Z,48.38
2017-05-11T12:47:06.825Z,47.74
2017-05-11T12:48:28.678Z,48.1
2017-05-11T12:49:50.668Z,47.34
2017-05-11T12:51:12.528Z,46.32
2017-05-11T12:52:47.669Z,45.33
2017-05-11T12:54:09.519Z,43.93
2017-05-11T12:55:31.403Z,43.51
2017-05-11T12:56:53.235Z,42.88
2017-05-11T12:58:15.458Z,41.85
2017-05-11T12:59:37.388Z,40.87
2017-05-11T13:00:59.305Z,40.15
2017-05-11T13:02:21.163Z,39.71
2017-05-11T13:03:43.050Z,39.33
2017-05-11T13:05:04.935Z,39.07
2017-05-11T13:06:26.841Z,39.05
2017-05-11T13:07:48.716Z,39.4
2017-05-11T13:09:17.647Z,40.16
2017-05-11T13:10:39.567Z,41.23
2017-05-11T13:12:01.468Z,42.4
2017-05-11T13:13:28.661Z,44.74
2017-05-11T13:14:50.889Z,48.01
2017-05-11T13:16:12.982Z,51.26
2017-05-11T13:17:34.922Z,51.07
2017-05-11T13:18:56.906Z,47.79
2017-05-11T13:20:18.934Z,45.66
2017-05-11T13:21:41.516Z,46.44
2017-05-11T13:23:03.501Z,48.19
2017-05-11T13:24:26.132Z,48.25
2017-05-11T13:25:48.342Z,47.05
2017-05-11T13:27:10.420Z,45.74
2017-05-11T13:28:39.061Z,44.82
2017-05-11T13:30:01.101Z,43.97
2017-05-11T13:31:23.024Z,43.17
2017-05-11T13:32:44.872Z,42.76
2017-05-11T13:34:20.017Z,42.63
2017-05-11T13:35:41.982Z,43.51
2017-05-11T13:37:03.855Z,44.7
2017-05-11T13:38:25.720Z,45.01
2017-05-11T13:39:47.625Z,48.12
2017-05-11T13:41:09.578Z,51.07
2017-05-11T13:42:31.590Z,53.01
2017-05-11T13:43:53.509Z,54.21
2017-05-11T13:45:15.429Z,54.8
2017-05-11T13:46:37.351Z,55.5
2017-05-11T13:47:59.253Z,56.69
2017-05-11T13:49:21.229Z,57.69
2017-05-11T13:50:43.154Z,57.99
2017-05-11T13:52:05.078Z,58.02
2017-05-11T13:53:26.935Z,58.01
2017-05-11T13:55:00.395Z,58.02
2017-05-11T13:56:22.251Z,58.3
2017-05-11T13:57:44.119Z,58.91
2017-05-11T13:59:05.985Z,59
2017-05-11T14:00:27.813Z,58.83
2017-05-11T14:01:49.749Z,58.35
2017-05-11T14:03:13.876Z,57.13
2017-05-11T14:04:35.838Z,56.45
2017-05-11T14:06:03.528Z,54.4
2017-05-11T14:07:25.714Z,54.07
2017-05-11T14:08:49.617Z,54.95
2017-05-11T14:10:11.594Z,56.03
2017-05-11T14:11:33.519Z,57.14
2017-05-11T14:12:56.398Z,56.97
2017-05-11T14:14:18.440Z,55.95
2017-05-11T14:15:54.134Z,53.53
2017-05-11T14:17:17.079Z,55.15
2017-05-11T14:18:39.187Z,56.21
2017-05-11T14:20:01.212Z,53.23
2017-05-11T14:21:23.724Z,51.28
2017-05-11T14:22:45.613Z,49.56
2017-05-11T14:24:07.570Z,48.32
2017-05-11T14:25:29.578Z,46.84
2017-05-11T14:26:51.486Z,46.21
2017-05-11T14:28:13.518Z,45.91
2017-05-11T14:29:35.408Z,45.84
2017-05-11T14:30:57.400Z,46.21
2017-05-11T14:32:19.244Z,46.29
2017-05-11T14:33:41.229Z,46.97
2017-05-11T14:35:03.129Z,49.75
2017-05-11T14:36:33.848Z,51.52
2017-05-11T14:37:55.839Z,49.84
2017-05-11T14:39:17.848Z,47.2
2017-05-11T14:40:39.769Z,45.14
2017-05-11T14:42:01.685Z,43.68
2017-05-11T14:43:28.799Z,42.92
2017-05-11T14:44:50.722Z,42.26
2017-05-11T14:46:12.537Z,42.07
2017-05-11T14:47:34.396Z,41.31
2017-05-11T14:48:56.293Z,40.31
2017-05-11T14:50:18.206Z,39.44
2017-05-11T14:51:40.163Z,38.82
2017-05-11T14:53:02.065Z,38.48
2017-05-11T14:54:23.980Z,38.38
2017-05-11T14:55:45.901Z,38.12
2017-05-11T14:57:10.181Z,37.66
2017-05-11T14:58:43.618Z,37.02
2017-05-11T15:00:05.661Z,36.53
2017-05-11T15:01:27.511Z,35.98
2017-05-11T15:02:49.467Z,35.43
2017-05-11T15:04:11.489Z,35.02
2017-05-11T15:05:33.364Z,34.75
2017-05-11T15:06:55.184Z,34.68
2017-05-11T15:08:17.043Z,34.66
2017-05-11T15:09:40.486Z,34.68
2017-05-11T15:11:02.525Z,34.47
2017-05-11T15:12:24.373Z,34.25
2017-05-11T15:13:47.327Z,34.26
2017-05-11T15:15:09.229Z,34.3
2017-05-11T15:16:31.275Z,34.23
2017-05-11T15:17:53.204Z,34
2017-05-11T15:19:15.123Z,33.61
2017-05-11T15:20:37.038Z,33.14
2017-05-11T15:21:58.994Z,32.68
2017-05-11T15:23:20.993Z,32.18
2017-05-11T15:24:42.949Z,31.71
2017-05-11T15:26:04.887Z,31.24
2017-05-11T15:27:26.880Z,30.78
2017-05-11T15:28:48.802Z,30.33
2017-05-11T15:30:10.680Z,29.89
2017-05-11T15:31:32.555Z,29.53
2017-05-11T15:32:54.474Z,29.22
2017-05-11T15:34:16.365Z,28.88
2017-05-11T15:35:38.261Z,28.35
2017-05-11T15:37:00.217Z,27.84
2017-05-11T15:38:22.314Z,27.49
2017-05-11T15:39:48.313Z,27.29
2017-05-11T15:41:10.425Z,27.25
2017-05-11T15:42:33.465Z,27.27
2017-05-11T15:43:55.951Z,27.3
2017-05-11T15:45:18.497Z,27.32
2017-05-11T15:46:42.118Z,27.34
2017-05-11T15:48:10.574Z,27.35
2017-05-11T15:49:33.196Z,27.36
2017-05-11T15:51:02.761Z,27.34
2017-05-11T15:52:29.059Z,27.33
2017-05-11T15:53:55.098Z,27.27
2017-05-11T15:55:19.040Z,27.19
2017-05-11T15:56:45.063Z,27.06
2017-05-11T15:58:11.679Z,26.9
2017-05-11T15:59:40.051Z,26.73
2017-05-11T16:01:20.802Z,26.51
2017-05-11T16:04:28.130Z,26.18
2017-05-11T16:34:48.129Z,23.66
2017-05-11T18:27:00.379Z,20.1
2017-05-11T18:45:33.474Z,19.13
2017-05-11T18:46:57.363Z,19.06
2017-05-11T19:39:32.690Z,17.96
2017-05-11T20:40:23.380Z,17.64
2017-05-11T20:47:50.409Z,17.33
2017-05-11T20:49:18.620Z,17.27
2017-05-11T20:50:54.687Z,17.24
2017-05-11T20:52:48.813Z,17.19
2017-05-11T20:54:27.232Z,17.15
2017-05-11T20:56:00.767Z,17.13
2017-05-11T20:57:40.097Z,17.1
2017-05-11T20:59:31.612Z,17.07
